Elisalex Schulte — 9V9154 — position and weather

sailwx.info

Track history (hours):
 
Tides and Currents Weather Stations Pressure Air Temp Water Temp Dewpoint Dewpoint Depression Visibility Wind Speed Wind Dir Waves Ship Positions

Elisalex Schulte

Last reported at 2016-Dec-07 15:30 UTC. Time now 2016-Dec-07 18:21 UTC.
Position N 53°19' W 002°57'.

Length 144 m; draft 7.6 m.

Type: Tanker. MMSI: 563052000.

Date/timePositionNaut miles runAvg speedWind from/ knotsBaromVisibWave heightAir tempDewpointWater temp
2016-Dec-07 15:30N 53°19' W 002°57'0 0.0
2016-Dec-07 14:27N 53°19' W 002°57'0 0.0
2016-Dec-07 13:27N 53°19' W 002°57'0 0.0
2016-Dec-07 12:24N 53°19' W 002°57'0 0.0
2016-Dec-07 11:33N 53°19' W 002°57'0 0.0
2016-Dec-07 08:30N 53°19' W 002°57'0 0.0
2016-Dec-07 07:30N 53°19' W 002°57'0 0.0
2016-Dec-07 06:24N 53°19' W 002°57'0 0.0
2016-Dec-07 05:24N 53°19' W 002°57'0 0.0
2016-Dec-07 04:27N 53°19' W 002°57'0 0.0
2016-Dec-07 03:30N 53°19' W 002°57'0 0.0
2016-Dec-07 02:15N 53°19' W 002°57'0 0.0
2016-Dec-07 01:30N 53°19' W 002°57'0 0.0
2016-Dec-07 00:12N 53°19' W 002°57'0 0.0
2016-Dec-06 23:30N 53°19' W 002°57'0 0.0
2016-Dec-06 22:24N 53°19' W 002°57'0 0.0
2016-Dec-06 21:30N 53°19' W 002°57'0 0.0
2016-Dec-06 20:24N 53°19' W 002°57'0 0.0
2016-Dec-06 17:15N 53°19' W 002°57'0 0.3
2016-Dec-06 16:34N 53°19' W 002°57'1 0.8
2016-Dec-06 15:34N 53°20' W 002°57'9 8.6
2016-Dec-06 14:33N 53°28' W 003°04'9 9.2
2016-Dec-06 13:33N 53°32' W 003°18'6 5.5
2016-Dec-06 12:33N 53°27' W 003°24'0 0.1
2016-Dec-06 11:33N 53°27' W 003°24'0 0.1
2016-Dec-06 10:33N 53°28' W 003°24'2 1.6
2016-Dec-06 09:33N 53°28' W 003°26'1111.0
2016-Dec-06 08:33N 53°31' W 003°44'217 8.2
2016-Dec-05 06:08N 49°54' W 004°02'1113.2
2016-Dec-05 05:16N 49°55' W 003°45'1213.8
2016-Dec-05 04:23N 49°57' W 003°26'1214.0
2016-Dec-05 03:33N 49°59' W 003°08'1413.9
2016-Dec-05 02:32N 50°02' W 002°47'2812.3
2016-Dec-05 00:13N 50°09' W 002°04'710.5
2016-Dec-04 23:33N 50°11' W 001°53'1010.1
2016-Dec-04 22:33N 50°13' W 001°38'1010.3
2016-Dec-04 21:33N 50°16' W 001°23'1311.6
2016-Dec-04 20:28N 50°19' W 001°04'1613.5
2016-Dec-04 19:17N 50°24' W 000°39'1014.2
2016-Dec-04 18:33N 50°26' W 000°23'1414.2
2016-Dec-04 17:34N 50°30' W 000°02'1514.1
2016-Dec-04 16:31N 50°34' E 000°20'3912.3
2016-Dec-04 13:21N 50°56' E 001°11'911.7
2016-Dec-04 12:33N 51°02' E 001°22'1413.6
2016-Dec-04 11:33N 51°10' E 001°39'1414.3
2016-Dec-04 10:33N 51°22' E 001°52'1414.3
2016-Dec-04 09:34N 51°34' E 002°06'1413.7
2016-Dec-04 08:33N 51°44' E 002°20'16611.6
2016-Dec-03 18:14N 54°04' E 004°49'1513.2
2016-Dec-03 17:05N 54°06' E 005°14'713.6
2016-Dec-03 16:33N 54°07' E 005°26'1313.6
2016-Dec-03 15:33N 54°09' E 005°49'6412.4
2016-Dec-03 10:22N 54°10' E 007°39'1011.8
2016-Dec-03 09:33N 54°05' E 007°53'1211.7
2016-Dec-03 08:33N 54°01' E 008°12'1313.1
2016-Dec-03 07:33N 53°58' E 008°34'1313.5
2016-Dec-03 06:33N 53°50' E 008°52'1312.6
2016-Dec-03 05:33N 53°53' E 009°13'1111.4
2016-Dec-03 04:33N 53°44' E 009°26'1110.9
2016-Dec-03 03:33N 53°35' E 009°37'9 9.4
2016-Dec-03 02:33N 53°33' E 009°52'4 4.0
2016-Dec-03 01:33N 53°31' E 009°57'0 0.0
2016-Dec-03 00:31N 53°31' E 009°57'0 0.0
2016-Dec-02 23:33N 53°31' E 009°57'0 0.0
2016-Dec-02 22:34N 53°31' E 009°57'0 0.0
2016-Dec-02 21:34N 53°31' E 009°57'0 0.0
2016-Dec-02 20:34N 53°31' E 009°57'0 0.0
2016-Dec-02 19:34N 53°31' E 009°57'0 0.0
2016-Dec-02 18:34N 53°31' E 009°57'0 0.0
2016-Dec-02 17:34N 53°31' E 009°57'0 0.0
2016-Dec-02 16:34N 53°31' E 009°57'0 0.0
2016-Dec-02 15:34N 53°31' E 009°57'0 0.0
2016-Dec-02 14:34N 53°31' E 009°57'0 0.0
2016-Dec-02 13:34N 53°31' E 009°57'0 0.0
2016-Dec-02 12:34N 53°31' E 009°57'0 0.0
2016-Dec-02 11:34N 53°31' E 009°57'0 0.0
2016-Dec-02 10:34N 53°31' E 009°57'0 0.0
2016-Dec-02 09:34N 53°31' E 009°57'0 0.0
2016-Dec-02 08:33N 53°31' E 009°57'0 0.0
2016-Dec-02 07:34N 53°31' E 009°57'0 0.0
2016-Dec-02 06:34N 53°31' E 009°57'0 0.0
2016-Dec-02 05:34N 53°31' E 009°57'0 0.0
2016-Dec-02 04:34N 53°31' E 009°57'0 0.0
2016-Dec-02 03:34N 53°31' E 009°57'0 0.0
2016-Dec-02 02:34N 53°31' E 009°57'0 0.0
2016-Dec-02 01:34N 53°31' E 009°57'0 0.0
2016-Dec-02 00:33N 53°31' E 009°57'0 0.0
2016-Dec-01 23:34N 53°31' E 009°57'0 0.0
2016-Dec-01 22:34N 53°31' E 009°57'0 0.0
2016-Dec-01 21:33N 53°31' E 009°57'0 0.0
2016-Dec-01 20:34N 53°31' E 009°57'0 0.0
2016-Dec-01 19:34N 53°31' E 009°57'0 0.0
2016-Dec-01 18:34N 53°31' E 009°57'0 0.0
2016-Dec-01 17:34N 53°31' E 009°57'0 0.0
2016-Dec-01 16:34N 53°31' E 009°57'0 0.0
2016-Dec-01 15:34N 53°31' E 009°57'0 0.0
2016-Dec-01 14:34N 53°31' E 009°57'0 0.0
2016-Dec-01 13:33N 53°31' E 009°57'0 0.0
2016-Dec-01 12:34N 53°31' E 009°57'0 0.0
2016-Dec-01 11:34N 53°31' E 009°57'0 0.0
2016-Dec-01 10:31N 53°31' E 009°57'0 0.0
2016-Dec-01 09:31N 53°31' E 009°57'0 0.0
2016-Dec-01 08:31N 53°31' E 009°57'0 0.0
2016-Dec-01 07:31N 53°31' E 009°57'0 0.0
2016-Dec-01 06:31N 53°31' E 009°57'0 0.0
2016-Dec-01 05:31N 53°31' E 009°57'0 0.0
2016-Dec-01 04:31N 53°31' E 009°57'0 0.0
2016-Dec-01 03:31N 53°31' E 009°57'0 0.0
2016-Dec-01 02:31N 53°31' E 009°57'0 0.0
2016-Dec-01 01:31N 53°31' E 009°57'0 0.0
2016-Dec-01 00:31N 53°31' E 009°57'0 0.0
2016-Nov-30 23:31N 53°31' E 009°57'0 0.0
2016-Nov-30 22:33N 53°31' E 009°57'4 3.8
2016-Nov-30 21:33N 53°33' E 009°52'9 9.3
2016-Nov-30 20:33N 53°35' E 009°37'10 9.6
2016-Nov-30 19:33N 53°43' E 009°28'1010.4
2016-Nov-30 18:33N 53°52' E 009°18'8 7.7
2016-Nov-30 17:34N 53°52' E 009°05'1110.5
2016-Nov-30 16:34N 53°50' E 008°47'9 8.7
2016-Nov-30 15:33N 53°57' E 008°37'1010.2
2016-Nov-30 14:33N 53°59' E 008°20'8111.3
2016-Nov-30 07:19N 54°07' E 006°03'1013.7
2016-Nov-30 06:33N 54°05' E 005°45'1313.4
2016-Nov-30 05:33N 54°04' E 005°22'1313.1
2016-Nov-30 04:33N 54°02' E 005°00'12410.3
2016-Nov-29 16:30N 52°14' E 003°19'1313.3
2016-Nov-29 15:33N 52°07' E 003°37'1211.9
2016-Nov-29 14:34N 52°03' E 003°55'9 8.6
2016-Nov-29 13:34N 51°59' E 004°07'8 8.3
2016-Nov-29 12:34N 51°54' E 004°18'3 2.8
2016-Nov-29 11:28N 51°54' E 004°23'0 0.0
2016-Nov-29 10:34N 51°54' E 004°23'0 0.0
2016-Nov-29 09:34N 51°54' E 004°23'0 0.0
2016-Nov-29 08:33N 51°54' E 004°23'0 0.0
2016-Nov-29 07:34N 51°54' E 004°23'0 0.0
2016-Nov-29 06:34N 51°54' E 004°23'0 0.0
2016-Nov-29 04:33N 51°54' E 004°23'0 0.0
2016-Nov-29 03:34N 51°54' E 004°23'0 0.0
2016-Nov-29 02:33N 51°54' E 004°23'0 0.0
2016-Nov-29 01:33N 51°54' E 004°23'0 0.0
2016-Nov-29 00:34N 51°54' E 004°23'0 0.0
2016-Nov-28 23:34N 51°54' E 004°23'0 0.0
2016-Nov-28 22:34N 51°54' E 004°23'0 0.0
2016-Nov-28 21:33N 51°54' E 004°23'0 0.0
2016-Nov-28 20:34N 51°54' E 004°23'0 0.0
2016-Nov-28 19:34N 51°54' E 004°23'0 0.0
2016-Nov-28 18:33N 51°54' E 004°23'0 0.0
2016-Nov-28 17:34N 51°54' E 004°23'0 0.0
2016-Nov-28 16:33N 51°54' E 004°23'0 0.0
2016-Nov-28 15:34N 51°54' E 004°23'0 0.0
2016-Nov-28 14:33N 51°54' E 004°23'0 0.0
2016-Nov-28 13:34N 51°54' E 004°23'0 0.0
2016-Nov-28 12:34N 51°54' E 004°23'0 0.0
2016-Nov-28 11:33N 51°54' E 004°23'0 0.0
2016-Nov-28 10:34N 51°54' E 004°23'0 0.0
2016-Nov-28 09:34N 51°54' E 004°23'0 0.0
2016-Nov-28 08:33N 51°54' E 004°23'0 0.0
2016-Nov-28 07:34N 51°54' E 004°23'0 0.0
2016-Nov-28 06:34N 51°54' E 004°23'0 0.0
2016-Nov-28 05:34N 51°54' E 004°23'0 0.0
2016-Nov-28 04:33N 51°54' E 004°23'0 0.0
2016-Nov-28 03:33N 51°54' E 004°23'0 0.0
2016-Nov-28 02:34N 51°54' E 004°23'0 0.0
2016-Nov-28 01:34N 51°54' E 004°23'0 0.0
2016-Nov-28 00:33N 51°54' E 004°23'0 0.0
2016-Nov-27 23:33N 51°54' E 004°23'0 0.0
2016-Nov-27 22:34N 51°54' E 004°23'0 0.0
2016-Nov-27 21:34N 51°54' E 004°23'0 0.0
2016-Nov-27 20:34N 51°54' E 004°23'0 0.0
2016-Nov-27 19:34N 51°54' E 004°23'0 0.0
2016-Nov-27 18:34N 51°54' E 004°23'0 0.0
2016-Nov-27 17:34N 51°54' E 004°23'0 0.0
2016-Nov-27 16:34N 51°54' E 004°23'0 0.0
2016-Nov-27 15:34N 51°54' E 004°23'  
Track history (hours):
 
Tides and Currents Weather Stations Pressure Air Temp Water Temp Dewpoint Dewpoint Depression Visibility Wind Speed Wind Dir Waves Ship Positions

Elisalex Schulte

Last reported at 2016-Dec-07 15:30 UTC. Time now 2016-Dec-07 18:21 UTC.
Position N 53°19' W 002°57'.

Length 144 m; draft 7.6 m.

Type: Tanker. MMSI: 563052000.

Date/timePositionNaut miles runAvg speedWind from/ knotsBaromVisibWave heightAir tempDewpointWater temp
2016-Dec-07 15:30N 53°19' W 002°57'0 0.0
2016-Dec-07 14:27N 53°19' W 002°57'0 0.0
2016-Dec-07 13:27N 53°19' W 002°57'0 0.0
2016-Dec-07 12:24N 53°19' W 002°57'0 0.0
2016-Dec-07 11:33N 53°19' W 002°57'0 0.0
2016-Dec-07 08:30N 53°19' W 002°57'0 0.0
2016-Dec-07 07:30N 53°19' W 002°57'0 0.0
2016-Dec-07 06:24N 53°19' W 002°57'0 0.0
2016-Dec-07 05:24N 53°19' W 002°57'0 0.0
2016-Dec-07 04:27N 53°19' W 002°57'0 0.0
2016-Dec-07 03:30N 53°19' W 002°57'0 0.0
2016-Dec-07 02:15N 53°19' W 002°57'0 0.0
2016-Dec-07 01:30N 53°19' W 002°57'0 0.0
2016-Dec-07 00:12N 53°19' W 002°57'0 0.0
2016-Dec-06 23:30N 53°19' W 002°57'0 0.0
2016-Dec-06 22:24N 53°19' W 002°57'0 0.0
2016-Dec-06 21:30N 53°19' W 002°57'0 0.0
2016-Dec-06 20:24N 53°19' W 002°57'0 0.0
2016-Dec-06 17:15N 53°19' W 002°57'0 0.3
2016-Dec-06 16:34N 53°19' W 002°57'1 0.8
2016-Dec-06 15:34N 53°20' W 002°57'9 8.6
2016-Dec-06 14:33N 53°28' W 003°04'9 9.2
2016-Dec-06 13:33N 53°32' W 003°18'6 5.5
2016-Dec-06 12:33N 53°27' W 003°24'0 0.1
2016-Dec-06 11:33N 53°27' W 003°24'0 0.1
2016-Dec-06 10:33N 53°28' W 003°24'2 1.6
2016-Dec-06 09:33N 53°28' W 003°26'1111.0
2016-Dec-06 08:33N 53°31' W 003°44'217 8.2
2016-Dec-05 06:08N 49°54' W 004°02'1113.2
2016-Dec-05 05:16N 49°55' W 003°45'1213.8
2016-Dec-05 04:23N 49°57' W 003°26'1214.0
2016-Dec-05 03:33N 49°59' W 003°08'1413.9
2016-Dec-05 02:32N 50°02' W 002°47'2812.3
2016-Dec-05 00:13N 50°09' W 002°04'710.5
2016-Dec-04 23:33N 50°11' W 001°53'1010.1
2016-Dec-04 22:33N 50°13' W 001°38'1010.3
2016-Dec-04 21:33N 50°16' W 001°23'1311.6
2016-Dec-04 20:28N 50°19' W 001°04'1613.5
2016-Dec-04 19:17N 50°24' W 000°39'1014.2
2016-Dec-04 18:33N 50°26' W 000°23'1414.2
2016-Dec-04 17:34N 50°30' W 000°02'1514.1
2016-Dec-04 16:31N 50°34' E 000°20'3912.3
2016-Dec-04 13:21N 50°56' E 001°11'911.7
2016-Dec-04 12:33N 51°02' E 001°22'1413.6
2016-Dec-04 11:33N 51°10' E 001°39'1414.3
2016-Dec-04 10:33N 51°22' E 001°52'1414.3
2016-Dec-04 09:34N 51°34' E 002°06'1413.7
2016-Dec-04 08:33N 51°44' E 002°20'16611.6
2016-Dec-03 18:14N 54°04' E 004°49'1513.2
2016-Dec-03 17:05N 54°06' E 005°14'713.6
2016-Dec-03 16:33N 54°07' E 005°26'1313.6
2016-Dec-03 15:33N 54°09' E 005°49'6412.4
2016-Dec-03 10:22N 54°10' E 007°39'1011.8
2016-Dec-03 09:33N 54°05' E 007°53'1211.7
2016-Dec-03 08:33N 54°01' E 008°12'1313.1
2016-Dec-03 07:33N 53°58' E 008°34'1313.5
2016-Dec-03 06:33N 53°50' E 008°52'1312.6
2016-Dec-03 05:33N 53°53' E 009°13'1111.4
2016-Dec-03 04:33N 53°44' E 009°26'1110.9
2016-Dec-03 03:33N 53°35' E 009°37'9 9.4
2016-Dec-03 02:33N 53°33' E 009°52'4 4.0
2016-Dec-03 01:33N 53°31' E 009°57'0 0.0
2016-Dec-03 00:31N 53°31' E 009°57'0 0.0
2016-Dec-02 23:33N 53°31' E 009°57'0 0.0
2016-Dec-02 22:34N 53°31' E 009°57'0 0.0
2016-Dec-02 21:34N 53°31' E 009°57'0 0.0
2016-Dec-02 20:34N 53°31' E 009°57'0 0.0
2016-Dec-02 19:34N 53°31' E 009°57'0 0.0
2016-Dec-02 18:34N 53°31' E 009°57'0 0.0
2016-Dec-02 17:34N 53°31' E 009°57'0 0.0
2016-Dec-02 16:34N 53°31' E 009°57'0 0.0
2016-Dec-02 15:34N 53°31' E 009°57'0 0.0
2016-Dec-02 14:34N 53°31' E 009°57'0 0.0
2016-Dec-02 13:34N 53°31' E 009°57'0 0.0
2016-Dec-02 12:34N 53°31' E 009°57'0 0.0
2016-Dec-02 11:34N 53°31' E 009°57'0 0.0
2016-Dec-02 10:34N 53°31' E 009°57'0 0.0
2016-Dec-02 09:34N 53°31' E 009°57'0 0.0
2016-Dec-02 08:33N 53°31' E 009°57'0 0.0
2016-Dec-02 07:34N 53°31' E 009°57'0 0.0
2016-Dec-02 06:34N 53°31' E 009°57'0 0.0
2016-Dec-02 05:34N 53°31' E 009°57'0 0.0
2016-Dec-02 04:34N 53°31' E 009°57'0 0.0
2016-Dec-02 03:34N 53°31' E 009°57'0 0.0
2016-Dec-02 02:34N 53°31' E 009°57'0 0.0
2016-Dec-02 01:34N 53°31' E 009°57'0 0.0
2016-Dec-02 00:33N 53°31' E 009°57'0 0.0
2016-Dec-01 23:34N 53°31' E 009°57'0 0.0
2016-Dec-01 22:34N 53°31' E 009°57'0 0.0
2016-Dec-01 21:33N 53°31' E 009°57'0 0.0
2016-Dec-01 20:34N 53°31' E 009°57'0 0.0
2016-Dec-01 19:34N 53°31' E 009°57'0 0.0
2016-Dec-01 18:34N 53°31' E 009°57'0 0.0
2016-Dec-01 17:34N 53°31' E 009°57'0 0.0
2016-Dec-01 16:34N 53°31' E 009°57'0 0.0
2016-Dec-01 15:34N 53°31' E 009°57'0 0.0
2016-Dec-01 14:34N 53°31' E 009°57'0 0.0
2016-Dec-01 13:33N 53°31' E 009°57'0 0.0
2016-Dec-01 12:34N 53°31' E 009°57'0 0.0
2016-Dec-01 11:34N 53°31' E 009°57'0 0.0
2016-Dec-01 10:31N 53°31' E 009°57'0 0.0
2016-Dec-01 09:31N 53°31' E 009°57'0 0.0
2016-Dec-01 08:31N 53°31' E 009°57'0 0.0
2016-Dec-01 07:31N 53°31' E 009°57'0 0.0
2016-Dec-01 06:31N 53°31' E 009°57'0 0.0
2016-Dec-01 05:31N 53°31' E 009°57'0 0.0
2016-Dec-01 04:31N 53°31' E 009°57'0 0.0
2016-Dec-01 03:31N 53°31' E 009°57'0 0.0
2016-Dec-01 02:31N 53°31' E 009°57'0 0.0
2016-Dec-01 01:31N 53°31' E 009°57'0 0.0
2016-Dec-01 00:31N 53°31' E 009°57'0 0.0
2016-Nov-30 23:31N 53°31' E 009°57'0 0.0
2016-Nov-30 22:33N 53°31' E 009°57'4 3.8
2016-Nov-30 21:33N 53°33' E 009°52'9 9.3
2016-Nov-30 20:33N 53°35' E 009°37'10 9.6
2016-Nov-30 19:33N 53°43' E 009°28'1010.4
2016-Nov-30 18:33N 53°52' E 009°18'8 7.7
2016-Nov-30 17:34N 53°52' E 009°05'1110.5
2016-Nov-30 16:34N 53°50' E 008°47'9 8.7
2016-Nov-30 15:33N 53°57' E 008°37'1010.2
2016-Nov-30 14:33N 53°59' E 008°20'8111.3
2016-Nov-30 07:19N 54°07' E 006°03'1013.7
2016-Nov-30 06:33N 54°05' E 005°45'1313.4
2016-Nov-30 05:33N 54°04' E 005°22'1313.1
2016-Nov-30 04:33N 54°02' E 005°00'12410.3
2016-Nov-29 16:30N 52°14' E 003°19'1313.3
2016-Nov-29 15:33N 52°07' E 003°37'1211.9
2016-Nov-29 14:34N 52°03' E 003°55'9 8.6
2016-Nov-29 13:34N 51°59' E 004°07'8 8.3
2016-Nov-29 12:34N 51°54' E 004°18'3 2.8
2016-Nov-29 11:28N 51°54' E 004°23'0 0.0
2016-Nov-29 10:34N 51°54' E 004°23'0 0.0
2016-Nov-29 09:34N 51°54' E 004°23'0 0.0
2016-Nov-29 08:33N 51°54' E 004°23'0 0.0
2016-Nov-29 07:34N 51°54' E 004°23'0 0.0
2016-Nov-29 06:34N 51°54' E 004°23'0 0.0
2016-Nov-29 04:33N 51°54' E 004°23'0 0.0
2016-Nov-29 03:34N 51°54' E 004°23'0 0.0
2016-Nov-29 02:33N 51°54' E 004°23'0 0.0
2016-Nov-29 01:33N 51°54' E 004°23'0 0.0
2016-Nov-29 00:34N 51°54' E 004°23'0 0.0
2016-Nov-28 23:34N 51°54' E 004°23'0 0.0
2016-Nov-28 22:34N 51°54' E 004°23'0 0.0
2016-Nov-28 21:33N 51°54' E 004°23'0 0.0
2016-Nov-28 20:34N 51°54' E 004°23'0 0.0
2016-Nov-28 19:34N 51°54' E 004°23'0 0.0
2016-Nov-28 18:33N 51°54' E 004°23'0 0.0
2016-Nov-28 17:34N 51°54' E 004°23'0 0.0
2016-Nov-28 16:33N 51°54' E 004°23'0 0.0
2016-Nov-28 15:34N 51°54' E 004°23'0 0.0
2016-Nov-28 14:33N 51°54' E 004°23'0 0.0
2016-Nov-28 13:34N 51°54' E 004°23'0 0.0
2016-Nov-28 12:34N 51°54' E 004°23'0 0.0
2016-Nov-28 11:33N 51°54' E 004°23'0 0.0
2016-Nov-28 10:34N 51°54' E 004°23'0 0.0
2016-Nov-28 09:34N 51°54' E 004°23'0 0.0
2016-Nov-28 08:33N 51°54' E 004°23'0 0.0
2016-Nov-28 07:34N 51°54' E 004°23'0 0.0
2016-Nov-28 06:34N 51°54' E 004°23'0 0.0
2016-Nov-28 05:34N 51°54' E 004°23'0 0.0
2016-Nov-28 04:33N 51°54' E 004°23'0 0.0
2016-Nov-28 03:33N 51°54' E 004°23'0 0.0
2016-Nov-28 02:34N 51°54' E 004°23'0 0.0
2016-Nov-28 01:34N 51°54' E 004°23'0 0.0
2016-Nov-28 00:33N 51°54' E 004°23'0 0.0
2016-Nov-27 23:33N 51°54' E 004°23'0 0.0
2016-Nov-27 22:34N 51°54' E 004°23'0 0.0
2016-Nov-27 21:34N 51°54' E 004°23'0 0.0
2016-Nov-27 20:34N 51°54' E 004°23'0 0.0
2016-Nov-27 19:34N 51°54' E 004°23'0 0.0
2016-Nov-27 18:34N 51°54' E 004°23'0 0.0
2016-Nov-27 17:34N 51°54' E 004°23'0 0.0
2016-Nov-27 16:34N 51°54' E 004°23'0 0.0
2016-Nov-27 15:34N 51°54' E 004°23'  

Dump ship's entire track history